sensor_id;sensor_type;location;lat;lon;timestamp;pressure;altitude;pressure_sealevel;temperature;humidity
81545;BME280;70990;50.618;7.346;2023-07-31T00:09:55;97962.59;;;16.25;72.68
81545;BME280;70990;50.618;7.346;2023-07-31T00:12:22;97963.53;;;16.22;72.84
81545;BME280;70990;50.618;7.346;2023-07-31T10:15:13;97630.03;;;16.61;79.22
81545;BME280;70990;50.618;7.346;2023-07-31T10:18:00;97633.13;;;16.63;80.21
81545;BME280;70990;50.618;7.346;2023-07-31T10:20:50;97646.44;;;16.68;80.63
81545;BME280;70990;50.618;7.346;2023-07-31T10:26:32;97630.31;;;16.72;78.19
81545;BME280;70990;50.618;7.346;2023-07-31T10:32:56;97642.84;;;16.77;80.29
81545;BME280;70990;50.618;7.346;2023-07-31T10:35:24;97641.94;;;16.80;79.35
81545;BME280;70990;50.618;7.346;2023-07-31T10:37:51;97635.84;;;16.90;80.13
81545;BME280;70990;50.618;7.346;2023-07-31T10:40:20;97644.53;;;16.92;79.70
81545;BME280;70990;50.618;7.346;2023-07-31T10:42:54;97636.75;;;16.97;78.09
81545;BME280;70990;50.618;7.346;2023-07-31T10:45:35;97626.84;;;16.96;79.38
81545;BME280;70990;50.618;7.346;2023-07-31T10:48:06;97634.28;;;16.99;78.41
81545;BME280;70990;50.618;7.346;2023-07-31T10:50:55;97615.78;;;17.10;78.48
81545;BME280;70990;50.618;7.346;2023-07-31T10:53:28;97628.56;;;17.26;78.79
81545;BME280;70990;50.618;7.346;2023-07-31T10:56:02;97624.97;;;17.34;77.42
81545;BME280;70990;50.618;7.346;2023-07-31T10:58:30;97619.81;;;17.42;76.59
81545;BME280;70990;50.618;7.346;2023-07-31T11:04:25;97632.34;;;17.80;74.42
81545;BME280;70990;50.618;7.346;2023-07-31T11:06:59;97625.91;;;17.88;75.17
81545;BME280;70990;50.618;7.346;2023-07-31T11:09:30;97624.47;;;17.93;73.09
81545;BME280;70990;50.618;7.346;2023-07-31T11:11:58;97619.09;;;17.89;74.65
81545;BME280;70990;50.618;7.346;2023-07-31T11:14:26;97620.16;;;17.92;74.14
81545;BME280;70990;50.618;7.346;2023-07-31T11:16:52;97618.72;;;17.96;73.84
81545;BME280;70990;50.618;7.346;2023-07-31T11:19:25;97616.63;;;18.06;74.35
81545;BME280;70990;50.618;7.346;2023-07-31T11:21:52;97612.41;;;18.10;73.08
81545;BME280;70990;50.618;7.346;2023-07-31T11:24:19;97614.53;;;18.16;71.18
81545;BME280;70990;50.618;7.346;2023-07-31T11:26:52;97618.00;;;18.25;72.54
81545;BME280;70990;50.618;7.346;2023-07-31T11:29:19;97611.53;;;18.19;70.27
81545;BME280;70990;50.618;7.346;2023-07-31T11:31:47;97614.44;;;18.25;69.98
81545;BME280;70990;50.618;7.346;2023-07-31T11:34:14;97613.81;;;18.30;70.05
81545;BME280;70990;50.618;7.346;2023-07-31T11:36:40;97618.44;;;18.47;69.51
81545;BME280;70990;50.618;7.346;2023-07-31T11:39:08;97602.22;;;18.51;70.73
81545;BME280;70990;50.618;7.346;2023-07-31T11:41:35;97604.78;;;18.64;69.64
81545;BME280;70990;50.618;7.346;2023-07-31T11:44:02;97606.03;;;18.63;69.41
81545;BME280;70990;50.618;7.346;2023-07-31T11:46:48;97603.44;;;18.60;66.99
81545;BME280;70990;50.618;7.346;2023-07-31T11:49:15;97604.78;;;18.79;69.46
81545;BME280;70990;50.618;7.346;2023-07-31T11:51:42;97623.03;;;18.89;68.38
81545;BME280;70990;50.618;7.346;2023-07-31T11:54:09;97610.75;;;18.86;68.81
81545;BME280;70990;50.618;7.346;2023-07-31T11:56:35;97613.59;;;18.33;71.19
81545;BME280;70990;50.618;7.346;2023-07-31T11:59:02;97610.13;;;18.38;74.15
81545;BME280;70990;50.618;7.346;2023-07-31T12:01:29;97603.59;;;18.56;74.36
81545;BME280;70990;50.618;7.346;2023-07-31T12:03:57;97593.78;;;18.75;70.84
81545;BME280;70990;50.618;7.346;2023-07-31T12:06:37;97598.19;;;19.11;67.38
81545;BME280;70990;50.618;7.346;2023-07-31T12:09:21;97580.31;;;19.44;67.58
81545;BME280;70990;50.618;7.346;2023-07-31T12:11:47;97589.78;;;19.61;67.21
81545;BME280;70990;50.618;7.346;2023-07-31T12:14:50;97591.59;;;19.84;66.23
81545;BME280;70990;50.618;7.346;2023-07-31T12:17:35;97563.06;;;19.65;65.75
81545;BME280;70990;50.618;7.346;2023-07-31T12:20:04;97580.50;;;19.75;65.37
81545;BME280;70990;50.618;7.346;2023-07-31T12:22:31;97587.63;;;20.63;63.81
81545;BME280;70990;50.618;7.346;2023-07-31T12:24:57;97599.53;;;20.52;63.10
81545;BME280;70990;50.618;7.346;2023-07-31T12:27:24;97580.75;;;20.38;64.32
81545;BME280;70990;50.618;7.346;2023-07-31T12:29:54;97580.34;;;20.25;63.31
81545;BME280;70990;50.618;7.346;2023-07-31T12:32:24;97587.78;;;20.07;63.80
81545;BME280;70990;50.618;7.346;2023-07-31T12:34:51;97602.09;;;20.09;64.59
81545;BME280;70990;50.618;7.346;2023-07-31T12:37:33;97586.97;;;19.81;65.87
81545;BME280;70990;50.618;7.346;2023-07-31T12:39:59;97596.50;;;19.69;65.00
81545;BME280;70990;50.618;7.346;2023-07-31T12:42:26;97581.06;;;19.59;65.29
81545;BME280;70990;50.618;7.346;2023-07-31T12:44:53;97576.59;;;19.87;66.71
81545;BME280;70990;50.618;7.346;2023-07-31T12:47:19;97570.97;;;20.07;66.06
81545;BME280;70990;50.618;7.346;2023-07-31T12:49:46;97570.75;;;20.11;64.34
81545;BME280;70990;50.618;7.346;2023-07-31T12:52:12;97575.44;;;19.99;64.51
81545;BME280;70990;50.618;7.346;2023-07-31T12:54:39;97574.88;;;20.16;64.52
81545;BME280;70990;50.618;7.346;2023-07-31T12:57:05;97572.63;;;20.20;65.35
81545;BME280;70990;50.618;7.346;2023-07-31T12:59:37;97567.50;;;20.64;65.98
81545;BME280;70990;50.618;7.346;2023-07-31T13:02:04;97570.25;;;20.33;63.06
81545;BME280;70990;50.618;7.346;2023-07-31T13:04:37;97562.41;;;20.17;64.23
81545;BME280;70990;50.618;7.346;2023-07-31T13:07:07;97569.41;;;20.06;63.54
81545;BME280;70990;50.618;7.346;2023-07-31T13:09:52;97553.03;;;19.59;64.61
81545;BME280;70990;50.618;7.346;2023-07-31T13:12:44;97567.91;;;19.65;64.51
81545;BME280;70990;50.618;7.346;2023-07-31T13:15:11;97563.50;;;19.44;65.71
81545;BME280;70990;50.618;7.346;2023-07-31T13:17:38;97566.22;;;19.38;65.15
81545;BME280;70990;50.618;7.346;2023-07-31T13:20:37;97571.75;;;19.32;66.87
81545;BME280;70990;50.618;7.346;2023-07-31T13:23:03;97555.66;;;19.27;66.81
81545;BME280;70990;50.618;7.346;2023-07-31T13:25:30;97561.66;;;19.20;67.06
81545;BME280;70990;50.618;7.346;2023-07-31T13:27:56;97547.94;;;19.22;68.01
81545;BME280;70990;50.618;7.346;2023-07-31T13:30:26;97547.59;;;19.00;66.24
81545;BME280;70990;50.618;7.346;2023-07-31T13:32:52;97539.59;;;18.93;66.56
81545;BME280;70990;50.618;7.346;2023-07-31T13:35:19;97542.50;;;18.84;67.19
81545;BME280;70990;50.618;7.346;2023-07-31T13:37:45;97538.16;;;18.83;67.20
81545;BME280;70990;50.618;7.346;2023-07-31T13:40:12;97547.59;;;19.00;67.46
81545;BME280;70990;50.618;7.346;2023-07-31T13:42:39;97547.34;;;19.18;66.70
81545;BME280;70990;50.618;7.346;2023-07-31T13:45:05;97541.16;;;19.29;66.87
81545;BME280;70990;50.618;7.346;2023-07-31T13:47:33;97531.28;;;19.33;66.11
81545;BME280;70990;50.618;7.346;2023-07-31T13:49:59;97544.88;;;19.41;65.56
81545;BME280;70990;50.618;7.346;2023-07-31T13:52:26;97530.47;;;19.48;65.17
81545;BME280;70990;50.618;7.346;2023-07-31T13:54:53;97524.69;;;19.37;65.62
81545;BME280;70990;50.618;7.346;2023-07-31T13:57:19;97536.00;;;19.07;65.92
81545;BME280;70990;50.618;7.346;2023-07-31T13:59:46;97520.94;;;19.05;66.77
81545;BME280;70990;50.618;7.346;2023-07-31T14:02:13;97517.31;;;18.84;67.55
81545;BME280;70990;50.618;7.346;2023-07-31T14:04:39;97521.75;;;18.76;68.11
81545;BME280;70990;50.618;7.346;2023-07-31T14:07:06;97531.16;;;18.73;67.87
81545;BME280;70990;50.618;7.346;2023-07-31T14:09:32;97526.19;;;18.97;68.23
81545;BME280;70990;50.618;7.346;2023-07-31T14:12:12;97506.75;;;18.59;67.36
81545;BME280;70990;50.618;7.346;2023-07-31T14:14:43;97533.25;;;18.78;68.44
81545;BME280;70990;50.618;7.346;2023-07-31T14:17:09;97529.38;;;18.90;68.05
81545;BME280;70990;50.618;7.346;2023-07-31T14:19:36;97525.72;;;19.19;69.03
81545;BME280;70990;50.618;7.346;2023-07-31T14:22:27;97500.38;;;18.93;68.64
81545;BME280;70990;50.618;7.346;2023-07-31T14:24:56;97514.91;;;18.91;68.18
81545;BME280;70990;50.618;7.346;2023-07-31T14:27:23;97531.63;;;18.42;69.22
81545;BME280;70990;50.618;7.346;2023-07-31T14:29:49;97532.56;;;18.24;70.11
81545;BME280;70990;50.618;7.346;2023-07-31T14:32:16;97533.44;;;18.16;69.79
81545;BME280;70990;50.618;7.346;2023-07-31T14:34:42;97538.72;;;17.99;70.23
81545;BME280;70990;50.618;7.346;2023-07-31T14:37:09;97530.59;;;18.01;70.62
81545;BME280;70990;50.618;7.346;2023-07-31T14:39:35;97533.88;;;17.99;71.82
81545;BME280;70990;50.618;7.346;2023-07-31T14:42:06;97542.41;;;18.05;71.23
81545;BME280;70990;50.618;7.346;2023-07-31T14:44:33;97529.00;;;18.09;71.44
81545;BME280;70990;50.618;7.346;2023-07-31T14:46:59;97540.53;;;18.02;71.21
81545;BME280;70990;50.618;7.346;2023-07-31T14:49:26;97543.72;;;17.95;70.54
81545;BME280;70990;50.618;7.346;2023-07-31T14:54:32;97542.63;;;17.78;71.27
81545;BME280;70990;50.618;7.346;2023-07-31T14:56:59;97546.97;;;17.79;71.80
81545;BME280;70990;50.618;7.346;2023-07-31T14:59:25;97544.53;;;17.71;70.81
81545;BME280;70990;50.618;7.346;2023-07-31T15:01:52;97552.91;;;17.71;70.58
81545;BME280;70990;50.618;7.346;2023-07-31T15:04:18;97542.63;;;17.78;70.91
81545;BME280;70990;50.618;7.346;2023-07-31T15:06:45;97541.19;;;17.82;70.82
81545;BME280;70990;50.618;7.346;2023-07-31T15:09:11;97547.91;;;17.76;70.80
81545;BME280;70990;50.618;7.346;2023-07-31T15:14:23;97544.63;;;17.77;71.11
81545;BME280;70990;50.618;7.346;2023-07-31T15:16:50;97538.16;;;17.71;70.98
81545;BME280;70990;50.618;7.346;2023-07-31T15:19:16;97537.03;;;17.78;71.08
81545;BME280;70990;50.618;7.346;2023-07-31T15:21:43;97537.34;;;17.80;71.57
81545;BME280;70990;50.618;7.346;2023-07-31T15:24:09;97521.03;;;17.78;71.39
81545;BME280;70990;50.618;7.346;2023-07-31T15:26:37;97515.06;;;17.85;70.99
81545;BME280;70990;50.618;7.346;2023-07-31T15:29:06;97517.09;;;17.85;70.97
81545;BME280;70990;50.618;7.346;2023-07-31T15:31:34;97506.28;;;17.78;71.28
81545;BME280;70990;50.618;7.346;2023-07-31T15:34:00;97501.06;;;17.70;70.62
81545;BME280;70990;50.618;7.346;2023-07-31T15:36:27;97504.06;;;17.82;71.20
81545;BME280;70990;50.618;7.346;2023-07-31T15:38:53;97495.31;;;17.89;71.09
81545;BME280;70990;50.618;7.346;2023-07-31T15:41:19;97484.91;;;17.89;71.14
81545;BME280;70990;50.618;7.346;2023-07-31T15:43:47;97481.63;;;17.91;70.89
81545;BME280;70990;50.618;7.346;2023-07-31T15:46:14;97471.50;;;17.93;70.89
81545;BME280;70990;50.618;7.346;2023-07-31T15:48:41;97471.44;;;18.02;71.04
81545;BME280;70990;50.618;7.346;2023-07-31T15:51:07;97466.50;;;18.12;70.54
81545;BME280;70990;50.618;7.346;2023-07-31T15:53:34;97465.72;;;18.11;71.23
81545;BME280;70990;50.618;7.346;2023-07-31T15:56:00;97467.56;;;18.00;71.05
81545;BME280;70990;50.618;7.346;2023-07-31T15:58:27;97459.47;;;18.02;71.74
81545;BME280;70990;50.618;7.346;2023-07-31T16:00:54;97457.34;;;17.97;70.90
81545;BME280;70990;50.618;7.346;2023-07-31T16:03:20;97449.81;;;17.73;71.29
81545;BME280;70990;50.618;7.346;2023-07-31T16:05:48;97464.06;;;17.76;71.84
81545;BME280;70990;50.618;7.346;2023-07-31T16:08:14;97458.84;;;17.68;72.34
81545;BME280;70990;50.618;7.346;2023-07-31T16:10:41;97450.97;;;17.67;72.44
81545;BME280;70990;50.618;7.346;2023-07-31T16:13:08;97449.88;;;17.64;72.15
81545;BME280;70990;50.618;7.346;2023-07-31T16:15:35;97461.38;;;17.66;72.47
81545;BME280;70990;50.618;7.346;2023-07-31T16:18:01;97448.94;;;17.67;72.55
81545;BME280;70990;50.618;7.346;2023-07-31T16:20:29;97445.88;;;17.56;73.02
81545;BME280;70990;50.618;7.346;2023-07-31T16:22:55;97447.78;;;17.50;74.37
81545;BME280;70990;50.618;7.346;2023-07-31T16:25:22;97441.06;;;17.42;74.57
81545;BME280;70990;50.618;7.346;2023-07-31T16:27:48;97443.31;;;17.29;75.48
81545;BME280;70990;50.618;7.346;2023-07-31T16:30:17;97449.97;;;17.31;76.80
81545;BME280;70990;50.618;7.346;2023-07-31T16:32:44;97449.44;;;17.18;77.75
81545;BME280;70990;50.618;7.346;2023-07-31T16:35:11;97434.19;;;17.05;77.90
81545;BME280;70990;50.618;7.346;2023-07-31T16:37:37;97446.66;;;16.94;77.55
81545;BME280;70990;50.618;7.346;2023-07-31T16:40:04;97437.47;;;16.79;79.25
81545;BME280;70990;50.618;7.346;2023-07-31T16:42:30;97440.25;;;16.79;80.21
81545;BME280;70990;50.618;7.346;2023-07-31T16:44:57;97439.97;;;16.68;80.97
81545;BME280;70990;50.618;7.346;2023-07-31T16:47:23;97422.97;;;16.57;81.27
81545;BME280;70990;50.618;7.346;2023-07-31T16:49:50;97421.72;;;16.58;82.28
81545;BME280;70990;50.618;7.346;2023-07-31T16:52:17;97416.34;;;16.45;82.75
81545;BME280;70990;50.618;7.346;2023-07-31T16:54:44;97415.78;;;16.41;82.71
81545;BME280;70990;50.618;7.346;2023-07-31T16:57:13;97412.56;;;16.25;83.22
81545;BME280;70990;50.618;7.346;2023-07-31T16:59:39;97393.88;;;16.16;83.79
81545;BME280;70990;50.618;7.346;2023-07-31T17:02:06;97381.19;;;16.15;84.65
81545;BME280;70990;50.618;7.346;2023-07-31T17:04:33;97391.72;;;16.11;84.13
81545;BME280;70990;50.618;7.346;2023-07-31T17:07:00;97392.66;;;16.08;84.73
81545;BME280;70990;50.618;7.346;2023-07-31T17:09:27;97390.97;;;16.10;84.50
81545;BME280;70990;50.618;7.346;2023-07-31T17:11:54;97379.81;;;16.10;84.71
81545;BME280;70990;50.618;7.346;2023-07-31T17:14:21;97379.69;;;16.05;84.01
81545;BME280;70990;50.618;7.346;2023-07-31T17:16:47;97375.63;;;16.06;85.19
81545;BME280;70990;50.618;7.346;2023-07-31T17:19:14;97376.91;;;16.05;85.26
81545;BME280;70990;50.618;7.346;2023-07-31T17:21:40;97370.38;;;16.08;85.69
81545;BME280;70990;50.618;7.346;2023-07-31T17:24:07;97363.44;;;16.03;85.25
81545;BME280;70990;50.618;7.346;2023-07-31T17:26:34;97352.44;;;16.00;84.80
81545;BME280;70990;50.618;7.346;2023-07-31T17:29:01;97358.97;;;15.97;85.79
81545;BME280;70990;50.618;7.346;2023-07-31T17:31:27;97344.72;;;15.95;85.15
81545;BME280;70990;50.618;7.346;2023-07-31T17:33:54;97343.34;;;15.90;85.82
81545;BME280;70990;50.618;7.346;2023-07-31T17:36:21;97328.19;;;15.91;84.99
81545;BME280;70990;50.618;7.346;2023-07-31T17:38:48;97320.41;;;15.95;85.53
81545;BME280;70990;50.618;7.346;2023-07-31T17:41:17;97319.81;;;15.91;84.78
81545;BME280;70990;50.618;7.346;2023-07-31T17:43:43;97311.19;;;15.80;85.89
81545;BME280;70990;50.618;7.346;2023-07-31T17:46:09;97317.06;;;15.82;86.03
81545;BME280;70990;50.618;7.346;2023-07-31T17:48:36;97307.16;;;15.81;86.80
81545;BME280;70990;50.618;7.346;2023-07-31T17:51:02;97320.47;;;15.86;86.14
81545;BME280;70990;50.618;7.346;2023-07-31T17:53:29;97302.34;;;15.82;86.10
81545;BME280;70990;50.618;7.346;2023-07-31T17:55:58;97308.34;;;15.89;86.25
81545;BME280;70990;50.618;7.346;2023-07-31T17:58:25;97298.00;;;15.90;85.35
81545;BME280;70990;50.618;7.346;2023-07-31T18:00:51;97296.56;;;15.94;85.83
81545;BME280;70990;50.618;7.346;2023-07-31T18:03:18;97294.22;;;16.02;85.57
81545;BME280;70990;50.618;7.346;2023-07-31T18:05:44;97301.50;;;15.99;85.37
81545;BME280;70990;50.618;7.346;2023-07-31T18:08:11;97294.41;;;15.98;84.67
81545;BME280;70990;50.618;7.346;2023-07-31T18:10:43;97292.84;;;15.97;85.84
81545;BME280;70990;50.618;7.346;2023-07-31T18:13:10;97287.09;;;16.01;85.93
81545;BME280;70990;50.618;7.346;2023-07-31T18:15:36;97281.41;;;15.95;86.03
81545;BME280;70990;50.618;7.346;2023-07-31T18:18:03;97278.94;;;15.88;86.51
81545;BME280;70990;50.618;7.346;2023-07-31T18:20:30;97275.25;;;15.82;86.95
81545;BME280;70990;50.618;7.346;2023-07-31T18:22:57;97269.69;;;15.82;87.04
81545;BME280;70990;50.618;7.346;2023-07-31T18:25:23;97271.25;;;15.83;87.43
81545;BME280;70990;50.618;7.346;2023-07-31T18:27:50;97271.25;;;15.83;86.50
81545;BME280;70990;50.618;7.346;2023-07-31T18:30:16;97269.53;;;15.86;86.92
81545;BME280;70990;50.618;7.346;2023-07-31T18:32:42;97281.28;;;15.90;86.86
81545;BME280;70990;50.618;7.346;2023-07-31T18:35:09;97277.72;;;15.89;87.71
81545;BME280;70990;50.618;7.346;2023-07-31T18:37:36;97272.94;;;15.81;87.18
81545;BME280;70990;50.618;7.346;2023-07-31T18:40:03;97268.75;;;15.85;87.89
81545;BME280;70990;50.618;7.346;2023-07-31T18:42:29;97273.56;;;15.85;87.98
81545;BME280;70990;50.618;7.346;2023-07-31T18:44:56;97266.78;;;15.77;88.41
81545;BME280;70990;50.618;7.346;2023-07-31T18:47:23;97262.16;;;15.73;88.15
81545;BME280;70990;50.618;7.346;2023-07-31T18:49:49;97267.75;;;15.73;88.86
81545;BME280;70990;50.618;7.346;2023-07-31T18:52:16;97271.88;;;15.78;88.42
81545;BME280;70990;50.618;7.346;2023-07-31T18:54:42;97268.34;;;15.68;89.26
81545;BME280;70990;50.618;7.346;2023-07-31T18:57:09;97274.81;;;15.74;88.43
81545;BME280;70990;50.618;7.346;2023-07-31T18:59:35;97266.31;;;15.78;88.49
81545;BME280;70990;50.618;7.346;2023-07-31T19:02:02;97259.66;;;15.76;88.70
81545;BME280;70990;50.618;7.346;2023-07-31T19:04:28;97263.53;;;15.78;87.89
81545;BME280;70990;50.618;7.346;2023-07-31T19:06:55;97259.00;;;15.81;87.77
81545;BME280;70990;50.618;7.346;2023-07-31T19:09:32;97255.94;;;15.79;88.75
81545;BME280;70990;50.618;7.346;2023-07-31T19:11:59;97241.38;;;15.84;87.10
81545;BME280;70990;50.618;7.346;2023-07-31T19:14:25;97249.53;;;15.87;87.06
81545;BME280;70990;50.618;7.346;2023-07-31T19:16:52;97232.25;;;15.83;87.38
81545;BME280;70990;50.618;7.346;2023-07-31T19:19:19;97235.63;;;15.87;87.73
81545;BME280;70990;50.618;7.346;2023-07-31T19:21:46;97240.91;;;15.85;87.69
81545;BME280;70990;50.618;7.346;2023-07-31T19:24:13;97238.00;;;15.80;87.61
81545;BME280;70990;50.618;7.346;2023-07-31T19:26:40;97241.50;;;15.89;87.52
81545;BME280;70990;50.618;7.346;2023-07-31T19:29:07;97234.56;;;15.85;87.63
81545;BME280;70990;50.618;7.346;2023-07-31T19:31:34;97232.25;;;15.83;87.44
81545;BME280;70990;50.618;7.346;2023-07-31T19:34:00;97226.66;;;15.83;87.64
81545;BME280;70990;50.618;7.346;2023-07-31T19:36:27;97234.13;;;15.77;88.48
81545;BME280;70990;50.618;7.346;2023-07-31T19:38:53;97223.75;;;15.78;87.97
81545;BME280;70990;50.618;7.346;2023-07-31T19:41:20;97210.75;;;15.74;88.02
81545;BME280;70990;50.618;7.346;2023-07-31T19:43:46;97213.19;;;15.82;87.80
81545;BME280;70990;50.618;7.346;2023-07-31T19:46:13;97216.22;;;15.69;88.74
81545;BME280;70990;50.618;7.346;2023-07-31T19:48:40;97217.59;;;15.73;87.92
81545;BME280;70990;50.618;7.346;2023-07-31T19:51:07;97208.50;;;15.64;88.30
81545;BME280;70990;50.618;7.346;2023-07-31T19:53:33;97208.81;;;15.66;89.23
81545;BME280;70990;50.618;7.346;2023-07-31T19:56:00;97203.41;;;15.62;89.59
81545;BME280;70990;50.618;7.346;2023-07-31T19:58:26;97193.38;;;15.56;90.60
81545;BME280;70990;50.618;7.346;2023-07-31T20:00:53;97199.56;;;15.60;89.81
81545;BME280;70990;50.618;7.346;2023-07-31T20:03:20;97190.44;;;15.59;89.76
81545;BME280;70990;50.618;7.346;2023-07-31T20:05:46;97170.81;;;15.54;90.53
81545;BME280;70990;50.618;7.346;2023-07-31T20:08:13;97193.09;;;15.54;89.62
81545;BME280;70990;50.618;7.346;2023-07-31T20:10:40;97178.53;;;15.50;89.99
81545;BME280;70990;50.618;7.346;2023-07-31T20:13:07;97170.16;;;15.50;90.32
81545;BME280;70990;50.618;7.346;2023-07-31T20:15:33;97179.78;;;15.49;89.79
81545;BME280;70990;50.618;7.346;2023-07-31T20:18:00;97169.41;;;15.49;90.33
81545;BME280;70990;50.618;7.346;2023-07-31T20:20:27;97175.91;;;15.46;90.48
81545;BME280;70990;50.618;7.346;2023-07-31T20:22:55;97166.34;;;15.47;90.59
81545;BME280;70990;50.618;7.346;2023-07-31T20:25:22;97178.69;;;15.46;90.40
81545;BME280;70990;50.618;7.346;2023-07-31T20:27:48;97169.00;;;15.42;90.48
81545;BME280;70990;50.618;7.346;2023-07-31T20:30:15;97163.09;;;15.49;90.33
81545;BME280;70990;50.618;7.346;2023-07-31T20:32:42;97159.69;;;15.45;90.72
81545;BME280;70990;50.618;7.346;2023-07-31T20:35:09;97156.75;;;15.48;90.39
81545;BME280;70990;50.618;7.346;2023-07-31T20:37:36;97146.38;;;15.49;89.99
81545;BME280;70990;50.618;7.346;2023-07-31T20:40:05;97130.72;;;15.51;89.60
81545;BME280;70990;50.618;7.346;2023-07-31T20:42:32;97119.28;;;15.49;90.67
81545;BME280;70990;50.618;7.346;2023-07-31T20:44:58;97122.25;;;15.46;90.13
81545;BME280;70990;50.618;7.346;2023-07-31T20:47:25;97117.16;;;15.44;90.24
81545;BME280;70990;50.618;7.346;2023-07-31T20:49:51;97124.09;;;15.49;90.26
81545;BME280;70990;50.618;7.346;2023-07-31T20:52:18;97113.31;;;15.42;89.96
81545;BME280;70990;50.618;7.346;2023-07-31T20:54:44;97113.91;;;15.46;90.66
81545;BME280;70990;50.618;7.346;2023-07-31T20:57:12;97112.34;;;15.45;90.93
81545;BME280;70990;50.618;7.346;2023-07-31T20:59:38;97081.72;;;15.45;90.95
81545;BME280;70990;50.618;7.346;2023-07-31T21:02:06;97072.19;;;15.37;91.05
81545;BME280;70990;50.618;7.346;2023-07-31T21:04:32;97062.59;;;15.38;91.57
81545;BME280;70990;50.618;7.346;2023-07-31T21:07:02;97063.81;;;15.37;91.74
81545;BME280;70990;50.618;7.346;2023-07-31T21:09:29;97055.53;;;15.27;91.23
81545;BME280;70990;50.618;7.346;2023-07-31T21:11:57;97050.28;;;15.29;91.53
81545;BME280;70990;50.618;7.346;2023-07-31T21:14:24;97052.00;;;15.27;91.45
81545;BME280;70990;50.618;7.346;2023-07-31T21:16:50;97063.25;;;15.32;91.39
81545;BME280;70990;50.618;7.346;2023-07-31T21:19:17;97065.72;;;15.30;91.77
81545;BME280;70990;50.618;7.346;2023-07-31T21:21:44;97081.03;;;15.35;90.96
81545;BME280;70990;50.618;7.346;2023-07-31T21:24:10;97063.66;;;15.40;91.03
81545;BME280;70990;50.618;7.346;2023-07-31T21:26:39;97042.53;;;15.33;91.07
81545;BME280;70990;50.618;7.346;2023-07-31T21:29:06;97033.22;;;15.37;90.70
81545;BME280;70990;50.618;7.346;2023-07-31T21:31:32;97049.28;;;15.42;91.06
81545;BME280;70990;50.618;7.346;2023-07-31T21:33:59;97051.41;;;15.47;90.71
81545;BME280;70990;50.618;7.346;2023-07-31T21:36:25;97046.31;;;15.45;90.71
81545;BME280;70990;50.618;7.346;2023-07-31T21:38:52;97052.00;;;15.51;90.40
81545;BME280;70990;50.618;7.346;2023-07-31T21:41:18;97047.66;;;15.50;90.34
81545;BME280;70990;50.618;7.346;2023-07-31T21:43:45;97042.59;;;15.48;91.04
81545;BME280;70990;50.618;7.346;2023-07-31T21:46:12;97023.25;;;15.54;90.80
81545;BME280;70990;50.618;7.346;2023-07-31T21:48:39;97018.13;;;15.52;90.42
81545;BME280;70990;50.618;7.346;2023-07-31T21:51:05;97011.78;;;15.52;90.79
81545;BME280;70990;50.618;7.346;2023-07-31T21:53:32;97015.34;;;15.52;91.11
81545;BME280;70990;50.618;7.346;2023-07-31T21:55:58;96995.88;;;15.52;91.13
81545;BME280;70990;50.618;7.346;2023-07-31T21:58:26;97003.75;;;15.54;90.95
81545;BME280;70990;50.618;7.346;2023-07-31T22:00:53;96991.41;;;15.46;91.31
81545;BME280;70990;50.618;7.346;2023-07-31T22:03:19;96997.53;;;15.50;91.59
81545;BME280;70990;50.618;7.346;2023-07-31T22:05:46;96998.31;;;15.50;91.36
81545;BME280;70990;50.618;7.346;2023-07-31T22:08:12;96991.19;;;15.49;91.41
81545;BME280;70990;50.618;7.346;2023-07-31T22:10:39;96995.53;;;15.50;92.07
81545;BME280;70990;50.618;7.346;2023-07-31T22:13:05;96977.94;;;15.44;91.78
81545;BME280;70990;50.618;7.346;2023-07-31T22:15:32;96957.66;;;15.53;91.82
81545;BME280;70990;50.618;7.346;2023-07-31T22:17:58;96968.31;;;15.54;91.20
81545;BME280;70990;50.618;7.346;2023-07-31T22:20:28;96973.13;;;15.54;92.05
81545;BME280;70990;50.618;7.346;2023-07-31T22:22:55;96969.69;;;15.50;91.60
81545;BME280;70990;50.618;7.346;2023-07-31T22:25:21;96956.09;;;15.52;91.78
81545;BME280;70990;50.618;7.346;2023-07-31T22:27:50;96949.59;;;15.55;91.97
81545;BME280;70990;50.618;7.346;2023-07-31T22:30:16;96951.75;;;15.51;92.02
81545;BME280;70990;50.618;7.346;2023-07-31T22:32:43;96948.97;;;15.51;92.42
81545;BME280;70990;50.618;7.346;2023-07-31T22:35:09;96946.50;;;15.53;92.13
81545;BME280;70990;50.618;7.346;2023-07-31T22:37:36;96945.56;;;15.56;91.51
81545;BME280;70990;50.618;7.346;2023-07-31T22:40:03;96946.97;;;15.51;92.34
81545;BME280;70990;50.618;7.346;2023-07-31T22:42:30;96934.78;;;15.49;92.65
81545;BME280;70990;50.618;7.346;2023-07-31T22:44:57;96930.16;;;15.46;92.36
81545;BME280;70990;50.618;7.346;2023-07-31T22:47:23;96923.63;;;15.49;92.74
81545;BME280;70990;50.618;7.346;2023-07-31T22:49:49;96918.06;;;15.49;92.87
81545;BME280;70990;50.618;7.346;2023-07-31T22:52:16;96899.81;;;15.48;92.46
81545;BME280;70990;50.618;7.346;2023-07-31T22:54:43;96897.63;;;15.52;92.09
81545;BME280;70990;50.618;7.346;2023-07-31T22:57:09;96884.66;;;15.49;92.74
81545;BME280;70990;50.618;7.346;2023-07-31T22:59:36;96884.28;;;15.56;92.37
81545;BME280;70990;50.618;7.346;2023-07-31T23:02:02;96870.88;;;15.54;92.68
81545;BME280;70990;50.618;7.346;2023-07-31T23:04:29;96866.22;;;15.51;92.50
81545;BME280;70990;50.618;7.346;2023-07-31T23:06:58;96828.47;;;15.50;92.35
81545;BME280;70990;50.618;7.346;2023-07-31T23:09:25;96792.19;;;15.45;93.03
81545;BME280;70990;50.618;7.346;2023-07-31T23:11:51;96696.78;;;15.44;93.01
81545;BME280;70990;50.618;7.346;2023-07-31T23:14:18;96701.09;;;15.45;93.00
81545;BME280;70990;50.618;7.346;2023-07-31T23:16:44;96821.88;;;15.48;92.76
81545;BME280;70990;50.618;7.346;2023-07-31T23:19:10;96819.97;;;15.54;92.46
81545;BME280;70990;50.618;7.346;2023-07-31T23:21:37;96829.56;;;15.53;92.59
81545;BME280;70990;50.618;7.346;2023-07-31T23:24:03;96820.75;;;15.54;92.30
81545;BME280;70990;50.618;7.346;2023-07-31T23:26:30;96805.28;;;15.53;92.99
81545;BME280;70990;50.618;7.346;2023-07-31T23:28:57;96806.31;;;15.56;92.64